sensor_id;sensor_type;location;lat;lon;timestamp;temperature;humidity
49379;DHT22;35254;47.990;-1.608;2023-04-06T00:01:37;19.20;50.80
49379;DHT22;35254;47.990;-1.608;2023-04-06T00:04:03;19.30;50.80
49379;DHT22;35254;47.990;-1.608;2023-04-06T00:06:28;19.20;50.80
49379;DHT22;35254;47.990;-1.608;2023-04-06T00:08:55;19.20;50.80
49379;DHT22;35254;47.990;-1.608;2023-04-06T00:11:21;19.20;50.80
49379;DHT22;35254;47.990;-1.608;2023-04-06T00:13:47;19.20;50.90
49379;DHT22;35254;47.990;-1.608;2023-04-06T00:16:13;19.20;50.90
49379;DHT22;35254;47.990;-1.608;2023-04-06T00:18:39;19.20;50.80
49379;DHT22;35254;47.990;-1.608;2023-04-06T00:21:04;19.20;50.40
49379;DHT22;35254;47.990;-1.608;2023-04-06T00:23:30;19.20;50.40
49379;DHT22;35254;47.990;-1.608;2023-04-06T00:25:56;19.20;51.90
49379;DHT22;35254;47.990;-1.608;2023-04-06T00:28:21;19.20;51.40
49379;DHT22;35254;47.990;-1.608;2023-04-06T00:30:54;19.20;51.40
49379;DHT22;35254;47.990;-1.608;2023-04-06T00:33:21;19.20;51.00
49379;DHT22;35254;47.990;-1.608;2023-04-06T00:35:47;19.20;50.90
49379;DHT22;35254;47.990;-1.608;2023-04-06T00:38:13;19.20;50.60
49379;DHT22;35254;47.990;-1.608;2023-04-06T00:40:39;19.20;50.30
49379;DHT22;35254;47.990;-1.608;2023-04-06T00:43:06;19.20;50.30
49379;DHT22;35254;47.990;-1.608;2023-04-06T00:45:32;19.20;50.20
49379;DHT22;35254;47.990;-1.608;2023-04-06T00:47:58;19.30;50.10
49379;DHT22;35254;47.990;-1.608;2023-04-06T00:50:24;19.20;50.10
49379;DHT22;35254;47.990;-1.608;2023-04-06T00:52:50;19.30;50.00
49379;DHT22;35254;47.990;-1.608;2023-04-06T00:55:17;19.20;50.00
49379;DHT22;35254;47.990;-1.608;2023-04-06T00:57:43;19.20;50.10
49379;DHT22;35254;47.990;-1.608;2023-04-06T01:00:09;19.20;50.00
49379;DHT22;35254;47.990;-1.608;2023-04-06T01:02:35;19.30;50.00
49379;DHT22;35254;47.990;-1.608;2023-04-06T01:05:01;19.20;50.00
49379;DHT22;35254;47.990;-1.608;2023-04-06T01:07:27;19.30;50.00
49379;DHT22;35254;47.990;-1.608;2023-04-06T01:09:54;19.20;50.00
49379;DHT22;35254;47.990;-1.608;2023-04-06T01:12:19;19.30;50.00
49379;DHT22;35254;47.990;-1.608;2023-04-06T01:14:45;19.30;50.00
49379;DHT22;35254;47.990;-1.608;2023-04-06T01:17:11;19.30;50.00
49379;DHT22;35254;47.990;-1.608;2023-04-06T01:19:37;19.30;50.00
49379;DHT22;35254;47.990;-1.608;2023-04-06T01:22:02;19.30;50.00
49379;DHT22;35254;47.990;-1.608;2023-04-06T01:24:28;19.30;50.10
49379;DHT22;35254;47.990;-1.608;2023-04-06T01:26:54;19.20;50.10
49379;DHT22;35254;47.990;-1.608;2023-04-06T01:29:19;19.20;50.10
49379;DHT22;35254;47.990;-1.608;2023-04-06T01:31:45;19.20;50.10
49379;DHT22;35254;47.990;-1.608;2023-04-06T01:34:11;19.20;50.10
49379;DHT22;35254;47.990;-1.608;2023-04-06T01:36:36;19.20;50.20
49379;DHT22;35254;47.990;-1.608;2023-04-06T01:39:02;19.30;50.20
49379;DHT22;35254;47.990;-1.608;2023-04-06T01:41:28;19.20;50.20
49379;DHT22;35254;47.990;-1.608;2023-04-06T01:43:54;19.30;50.20
49379;DHT22;35254;47.990;-1.608;2023-04-06T01:46:20;19.30;50.20
49379;DHT22;35254;47.990;-1.608;2023-04-06T01:48:46;19.20;50.30
49379;DHT22;35254;47.990;-1.608;2023-04-06T01:51:11;19.20;50.30
49379;DHT22;35254;47.990;-1.608;2023-04-06T01:53:37;19.20;50.30
49379;DHT22;35254;47.990;-1.608;2023-04-06T01:56:03;19.20;50.40
49379;DHT22;35254;47.990;-1.608;2023-04-06T01:58:28;19.20;50.40
49379;DHT22;35254;47.990;-1.608;2023-04-06T02:00:54;19.20;50.50
49379;DHT22;35254;47.990;-1.608;2023-04-06T02:03:19;19.20;50.60
49379;DHT22;35254;47.990;-1.608;2023-04-06T02:05:45;19.30;50.60
49379;DHT22;35254;47.990;-1.608;2023-04-06T02:08:11;19.30;50.70
49379;DHT22;35254;47.990;-1.608;2023-04-06T02:10:36;19.30;50.60
49379;DHT22;35254;47.990;-1.608;2023-04-06T02:13:02;19.20;50.70
49379;DHT22;35254;47.990;-1.608;2023-04-06T02:15:28;19.20;50.60
49379;DHT22;35254;47.990;-1.608;2023-04-06T02:17:53;19.30;50.60
49379;DHT22;35254;47.990;-1.608;2023-04-06T02:20:19;19.20;50.80
49379;DHT22;35254;47.990;-1.608;2023-04-06T02:22:45;19.20;50.70
49379;DHT22;35254;47.990;-1.608;2023-04-06T02:25:10;19.20;50.50
49379;DHT22;35254;47.990;-1.608;2023-04-06T02:27:36;19.20;50.50
49379;DHT22;35254;47.990;-1.608;2023-04-06T02:30:03;19.30;50.50
49379;DHT22;35254;47.990;-1.608;2023-04-06T02:32:28;19.20;50.50
49379;DHT22;35254;47.990;-1.608;2023-04-06T02:34:54;19.20;50.40
49379;DHT22;35254;47.990;-1.608;2023-04-06T02:37:20;19.30;50.40
49379;DHT22;35254;47.990;-1.608;2023-04-06T02:39:47;19.20;50.50
49379;DHT22;35254;47.990;-1.608;2023-04-06T02:42:13;19.20;50.40
49379;DHT22;35254;47.990;-1.608;2023-04-06T02:44:41;19.30;50.40
49379;DHT22;35254;47.990;-1.608;2023-04-06T02:47:07;19.20;50.30
49379;DHT22;35254;47.990;-1.608;2023-04-06T02:49:32;19.20;50.40
49379;DHT22;35254;47.990;-1.608;2023-04-06T02:51:58;19.20;50.30
49379;DHT22;35254;47.990;-1.608;2023-04-06T02:54:23;19.20;50.30
49379;DHT22;35254;47.990;-1.608;2023-04-06T02:56:49;19.20;50.30
49379;DHT22;35254;47.990;-1.608;2023-04-06T02:59:15;19.30;50.30
49379;DHT22;35254;47.990;-1.608;2023-04-06T03:01:41;19.20;50.30
49379;DHT22;35254;47.990;-1.608;2023-04-06T03:04:06;19.20;50.20
49379;DHT22;35254;47.990;-1.608;2023-04-06T03:06:32;19.20;50.20
49379;DHT22;35254;47.990;-1.608;2023-04-06T03:08:58;19.20;50.10
49379;DHT22;35254;47.990;-1.608;2023-04-06T03:11:23;19.20;50.10
49379;DHT22;35254;47.990;-1.608;2023-04-06T03:13:49;19.20;50.10
49379;DHT22;35254;47.990;-1.608;2023-04-06T03:16:15;19.20;50.10
49379;DHT22;35254;47.990;-1.608;2023-04-06T03:18:40;19.20;50.20
49379;DHT22;35254;47.990;-1.608;2023-04-06T03:21:06;19.20;50.30
49379;DHT22;35254;47.990;-1.608;2023-04-06T03:23:32;19.20;50.30
49379;DHT22;35254;47.990;-1.608;2023-04-06T03:25:57;19.20;50.30
49379;DHT22;35254;47.990;-1.608;2023-04-06T03:28:23;19.20;50.10
49379;DHT22;35254;47.990;-1.608;2023-04-06T03:30:49;19.20;50.20
49379;DHT22;35254;47.990;-1.608;2023-04-06T03:33:15;19.20;50.10
49379;DHT22;35254;47.990;-1.608;2023-04-06T03:35:40;19.20;50.10
49379;DHT22;35254;47.990;-1.608;2023-04-06T03:38:06;19.20;50.10
49379;DHT22;35254;47.990;-1.608;2023-04-06T03:40:32;19.20;50.10
49379;DHT22;35254;47.990;-1.608;2023-04-06T03:42:57;19.20;50.10
49379;DHT22;35254;47.990;-1.608;2023-04-06T03:45:23;19.20;50.10
49379;DHT22;35254;47.990;-1.608;2023-04-06T03:47:49;19.20;50.10
49379;DHT22;35254;47.990;-1.608;2023-04-06T03:50:14;19.20;50.10
49379;DHT22;35254;47.990;-1.608;2023-04-06T03:52:40;19.20;50.00
49379;DHT22;35254;47.990;-1.608;2023-04-06T03:55:07;19.20;50.00
49379;DHT22;35254;47.990;-1.608;2023-04-06T03:57:32;19.20;50.00
49379;DHT22;35254;47.990;-1.608;2023-04-06T03:59:58;19.20;49.90
49379;DHT22;35254;47.990;-1.608;2023-04-06T04:02:24;19.20;49.90
49379;DHT22;35254;47.990;-1.608;2023-04-06T04:04:49;19.20;49.90
49379;DHT22;35254;47.990;-1.608;2023-04-06T04:07:15;19.20;50.00
49379;DHT22;35254;47.990;-1.608;2023-04-06T04:09:41;19.20;49.90
49379;DHT22;35254;47.990;-1.608;2023-04-06T04:12:06;19.20;50.00
49379;DHT22;35254;47.990;-1.608;2023-04-06T04:14:32;19.20;49.90
49379;DHT22;35254;47.990;-1.608;2023-04-06T04:16:58;19.20;49.80
49379;DHT22;35254;47.990;-1.608;2023-04-06T04:19:23;19.20;49.80
49379;DHT22;35254;47.990;-1.608;2023-04-06T04:21:49;19.10;49.80
49379;DHT22;35254;47.990;-1.608;2023-04-06T04:24:15;19.20;49.90
49379;DHT22;35254;47.990;-1.608;2023-04-06T04:26:40;19.10;49.90
49379;DHT22;35254;47.990;-1.608;2023-04-06T04:29:06;19.20;49.90
49379;DHT22;35254;47.990;-1.608;2023-04-06T04:31:32;19.20;49.90
49379;DHT22;35254;47.990;-1.608;2023-04-06T04:33:59;19.10;50.10
49379;DHT22;35254;47.990;-1.608;2023-04-06T04:36:25;19.20;50.30
49379;DHT22;35254;47.990;-1.608;2023-04-06T04:38:52;19.20;50.20
49379;DHT22;35254;47.990;-1.608;2023-04-06T04:41:18;19.10;50.00
49379;DHT22;35254;47.990;-1.608;2023-04-06T04:43:43;19.20;50.00
49379;DHT22;35254;47.990;-1.608;2023-04-06T04:46:10;19.10;50.00
49379;DHT22;35254;47.990;-1.608;2023-04-06T04:48:35;19.10;50.00
49379;DHT22;35254;47.990;-1.608;2023-04-06T04:51:01;19.10;50.00
49379;DHT22;35254;47.990;-1.608;2023-04-06T04:53:27;19.10;50.10
49379;DHT22;35254;47.990;-1.608;2023-04-06T04:55:53;19.10;50.20
49379;DHT22;35254;47.990;-1.608;2023-04-06T04:58:18;19.10;50.10
49379;DHT22;35254;47.990;-1.608;2023-04-06T05:00:45;19.10;50.20
49379;DHT22;35254;47.990;-1.608;2023-04-06T05:03:22;19.10;50.60
49379;DHT22;35254;47.990;-1.608;2023-04-06T05:05:48;19.10;50.90
49379;DHT22;35254;47.990;-1.608;2023-04-06T05:08:14;19.10;51.00
49379;DHT22;35254;47.990;-1.608;2023-04-06T05:10:40;19.10;51.40
49379;DHT22;35254;47.990;-1.608;2023-04-06T05:13:06;19.10;51.10
49379;DHT22;35254;47.990;-1.608;2023-04-06T05:15:31;19.10;51.30
49379;DHT22;35254;47.990;-1.608;2023-04-06T05:18:00;19.10;51.20
49379;DHT22;35254;47.990;-1.608;2023-04-06T05:20:26;19.10;50.90
49379;DHT22;35254;47.990;-1.608;2023-04-06T05:22:52;19.10;51.00
49379;DHT22;35254;47.990;-1.608;2023-04-06T05:25:18;19.10;50.70
49379;DHT22;35254;47.990;-1.608;2023-04-06T05:27:43;19.10;50.80
49379;DHT22;35254;47.990;-1.608;2023-04-06T05:30:09;19.10;50.60
49379;DHT22;35254;47.990;-1.608;2023-04-06T05:32:35;19.10;50.80
49379;DHT22;35254;47.990;-1.608;2023-04-06T05:35:01;19.10;50.60
49379;DHT22;35254;47.990;-1.608;2023-04-06T05:37:26;19.10;50.70
49379;DHT22;35254;47.990;-1.608;2023-04-06T05:39:52;19.10;50.40
49379;DHT22;35254;47.990;-1.608;2023-04-06T05:42:17;19.10;50.20
49379;DHT22;35254;47.990;-1.608;2023-04-06T05:44:43;19.10;50.20
49379;DHT22;35254;47.990;-1.608;2023-04-06T05:47:09;19.10;50.20
49379;DHT22;35254;47.990;-1.608;2023-04-06T05:49:34;19.10;50.20
49379;DHT22;35254;47.990;-1.608;2023-04-06T05:52:00;19.10;50.00
49379;DHT22;35254;47.990;-1.608;2023-04-06T05:54:26;19.10;49.80
49379;DHT22;35254;47.990;-1.608;2023-04-06T05:56:52;19.10;50.20
49379;DHT22;35254;47.990;-1.608;2023-04-06T05:59:18;19.10;49.90
49379;DHT22;35254;47.990;-1.608;2023-04-06T06:01:43;19.10;52.00
49379;DHT22;35254;47.990;-1.608;2023-04-06T06:04:09;19.10;50.80
49379;DHT22;35254;47.990;-1.608;2023-04-06T06:06:35;19.10;51.00
49379;DHT22;35254;47.990;-1.608;2023-04-06T06:09:01;19.10;51.60
49379;DHT22;35254;47.990;-1.608;2023-04-06T06:11:29;19.10;51.40
49379;DHT22;35254;47.990;-1.608;2023-04-06T06:13:55;19.10;51.20
49379;DHT22;35254;47.990;-1.608;2023-04-06T06:16:21;19.10;51.20
49379;DHT22;35254;47.990;-1.608;2023-04-06T06:18:47;19.10;51.70
49379;DHT22;35254;47.990;-1.608;2023-04-06T06:21:13;19.10;51.60
49379;DHT22;35254;47.990;-1.608;2023-04-06T06:23:38;19.10;52.00
49379;DHT22;35254;47.990;-1.608;2023-04-06T06:26:04;19.10;52.20
49379;DHT22;35254;47.990;-1.608;2023-04-06T06:28:30;19.10;52.30
49379;DHT22;35254;47.990;-1.608;2023-04-06T06:30:56;19.10;51.60
49379;DHT22;35254;47.990;-1.608;2023-04-06T06:33:22;19.10;52.00
49379;DHT22;35254;47.990;-1.608;2023-04-06T06:35:48;19.10;51.80
49379;DHT22;35254;47.990;-1.608;2023-04-06T06:38:14;19.10;52.10
49379;DHT22;35254;47.990;-1.608;2023-04-06T06:40:40;19.10;52.20
49379;DHT22;35254;47.990;-1.608;2023-04-06T06:43:06;19.10;52.30
49379;DHT22;35254;47.990;-1.608;2023-04-06T06:45:32;19.10;52.30
49379;DHT22;35254;47.990;-1.608;2023-04-06T06:47:57;19.10;52.30
49379;DHT22;35254;47.990;-1.608;2023-04-06T06:50:23;19.10;52.10
49379;DHT22;35254;47.990;-1.608;2023-04-06T06:52:49;19.00;52.20
49379;DHT22;35254;47.990;-1.608;2023-04-06T06:55:14;19.10;52.40
49379;DHT22;35254;47.990;-1.608;2023-04-06T06:57:40;19.10;52.00
49379;DHT22;35254;47.990;-1.608;2023-04-06T07:00:08;19.10;51.80
49379;DHT22;35254;47.990;-1.608;2023-04-06T07:02:35;19.10;52.00
49379;DHT22;35254;47.990;-1.608;2023-04-06T07:05:01;19.10;52.20
49379;DHT22;35254;47.990;-1.608;2023-04-06T07:07:27;19.10;51.90
49379;DHT22;35254;47.990;-1.608;2023-04-06T07:09:53;19.10;52.20
49379;DHT22;35254;47.990;-1.608;2023-04-06T07:12:18;19.10;52.20
49379;DHT22;35254;47.990;-1.608;2023-04-06T07:14:44;19.10;52.10
49379;DHT22;35254;47.990;-1.608;2023-04-06T07:17:10;19.10;52.00
49379;DHT22;35254;47.990;-1.608;2023-04-06T07:19:36;19.10;52.30
49379;DHT22;35254;47.990;-1.608;2023-04-06T07:22:02;19.10;52.10
49379;DHT22;35254;47.990;-1.608;2023-04-06T07:24:28;19.10;51.90
49379;DHT22;35254;47.990;-1.608;2023-04-06T07:26:55;19.10;52.20
49379;DHT22;35254;47.990;-1.608;2023-04-06T07:29:22;19.10;51.90
49379;DHT22;35254;47.990;-1.608;2023-04-06T07:31:48;19.00;52.50
49379;DHT22;35254;47.990;-1.608;2023-04-06T07:34:14;19.10;52.60
49379;DHT22;35254;47.990;-1.608;2023-04-06T07:36:40;19.10;52.40
49379;DHT22;35254;47.990;-1.608;2023-04-06T07:39:07;19.00;52.40
49379;DHT22;35254;47.990;-1.608;2023-04-06T07:41:32;19.10;52.30
49379;DHT22;35254;47.990;-1.608;2023-04-06T07:43:58;19.10;51.80
49379;DHT22;35254;47.990;-1.608;2023-04-06T07:46:24;19.10;51.90
49379;DHT22;35254;47.990;-1.608;2023-04-06T07:48:50;19.10;51.80
49379;DHT22;35254;47.990;-1.608;2023-04-06T07:51:16;19.00;51.90
49379;DHT22;35254;47.990;-1.608;2023-04-06T07:53:44;19.00;52.10
49379;DHT22;35254;47.990;-1.608;2023-04-06T07:56:10;19.00;51.90
49379;DHT22;35254;47.990;-1.608;2023-04-06T07:58:36;19.00;51.90
49379;DHT22;35254;47.990;-1.608;2023-04-06T08:01:01;19.00;52.10
49379;DHT22;35254;47.990;-1.608;2023-04-06T08:03:27;19.10;52.10
49379;DHT22;35254;47.990;-1.608;2023-04-06T08:05:53;19.00;52.20
49379;DHT22;35254;47.990;-1.608;2023-04-06T08:08:19;19.00;51.80
49379;DHT22;35254;47.990;-1.608;2023-04-06T08:10:47;19.10;52.00
49379;DHT22;35254;47.990;-1.608;2023-04-06T08:13:13;19.00;52.20
49379;DHT22;35254;47.990;-1.608;2023-04-06T08:15:39;19.00;51.90
49379;DHT22;35254;47.990;-1.608;2023-04-06T08:18:04;19.10;51.80
49379;DHT22;35254;47.990;-1.608;2023-04-06T08:20:30;19.00;51.70
49379;DHT22;35254;47.990;-1.608;2023-04-06T08:22:56;19.00;51.90
49379;DHT22;35254;47.990;-1.608;2023-04-06T08:25:21;19.00;51.80
49379;DHT22;35254;47.990;-1.608;2023-04-06T08:27:47;19.00;52.00
49379;DHT22;35254;47.990;-1.608;2023-04-06T08:30:13;19.00;52.00
49379;DHT22;35254;47.990;-1.608;2023-04-06T08:32:41;19.10;51.70
49379;DHT22;35254;47.990;-1.608;2023-04-06T08:35:07;19.00;51.90
49379;DHT22;35254;47.990;-1.608;2023-04-06T08:37:33;19.10;52.20
49379;DHT22;35254;47.990;-1.608;2023-04-06T08:39:58;19.00;52.50
49379;DHT22;35254;47.990;-1.608;2023-04-06T08:42:25;19.10;52.50
49379;DHT22;35254;47.990;-1.608;2023-04-06T08:44:51;19.10;52.10
49379;DHT22;35254;47.990;-1.608;2023-04-06T08:47:18;19.10;52.30
49379;DHT22;35254;47.990;-1.608;2023-04-06T08:49:44;19.10;52.30
49379;DHT22;35254;47.990;-1.608;2023-04-06T08:52:11;19.00;52.20
49379;DHT22;35254;47.990;-1.608;2023-04-06T08:54:37;19.10;52.40
49379;DHT22;35254;47.990;-1.608;2023-04-06T08:57:05;19.10;52.50
49379;DHT22;35254;47.990;-1.608;2023-04-06T08:59:34;19.10;52.40
49379;DHT22;35254;47.990;-1.608;2023-04-06T09:02:03;19.10;52.20
49379;DHT22;35254;47.990;-1.608;2023-04-06T09:04:31;19.10;52.50
49379;DHT22;35254;47.990;-1.608;2023-04-06T09:06:58;19.10;52.60
49379;DHT22;35254;47.990;-1.608;2023-04-06T09:09:24;19.10;52.60
49379;DHT22;35254;47.990;-1.608;2023-04-06T09:11:51;19.00;52.50
49379;DHT22;35254;47.990;-1.608;2023-04-06T09:14:32;19.10;52.60
49379;DHT22;35254;47.990;-1.608;2023-04-06T09:16:58;19.10;52.60
49379;DHT22;35254;47.990;-1.608;2023-04-06T09:19:24;19.00;52.30
49379;DHT22;35254;47.990;-1.608;2023-04-06T09:21:49;19.10;52.40
49379;DHT22;35254;47.990;-1.608;2023-04-06T09:24:15;19.00;52.40
49379;DHT22;35254;47.990;-1.608;2023-04-06T09:26:47;19.00;52.20
49379;DHT22;35254;47.990;-1.608;2023-04-06T09:29:23;19.10;52.70
49379;DHT22;35254;47.990;-1.608;2023-04-06T09:31:49;19.10;52.30
49379;DHT22;35254;47.990;-1.608;2023-04-06T09:34:22;19.10;52.10
49379;DHT22;35254;47.990;-1.608;2023-04-06T09:36:49;19.10;52.30
49379;DHT22;35254;47.990;-1.608;2023-04-06T09:39:15;19.10;52.20
49379;DHT22;35254;47.990;-1.608;2023-04-06T09:41:41;19.10;52.50
49379;DHT22;35254;47.990;-1.608;2023-04-06T09:44:11;19.10;52.20
49379;DHT22;35254;47.990;-1.608;2023-04-06T09:46:40;19.10;52.30
49379;DHT22;35254;47.990;-1.608;2023-04-06T09:49:07;19.10;52.50
49379;DHT22;35254;47.990;-1.608;2023-04-06T09:54:06;19.10;52.80
49379;DHT22;35254;47.990;-1.608;2023-04-06T09:56:56;19.10;52.30
49379;DHT22;35254;47.990;-1.608;2023-04-06T10:05:00;19.10;53.10
49379;DHT22;35254;47.990;-1.608;2023-04-06T10:07:28;19.10;52.80
49379;DHT22;35254;47.990;-1.608;2023-04-06T10:09:55;19.10;52.50
49379;DHT22;35254;47.990;-1.608;2023-04-06T10:12:21;19.10;52.50
49379;DHT22;35254;47.990;-1.608;2023-04-06T10:14:46;19.10;52.90
49379;DHT22;35254;47.990;-1.608;2023-04-06T10:17:12;19.10;52.90
49379;DHT22;35254;47.990;-1.608;2023-04-06T10:19:44;19.10;53.10
49379;DHT22;35254;47.990;-1.608;2023-04-06T10:22:26;19.10;52.50
49379;DHT22;35254;47.990;-1.608;2023-04-06T10:24:54;19.10;52.80
49379;DHT22;35254;47.990;-1.608;2023-04-06T10:27:30;19.10;52.80
49379;DHT22;35254;47.990;-1.608;2023-04-06T10:30:03;19.10;53.10
49379;DHT22;35254;47.990;-1.608;2023-04-06T10:32:38;19.10;52.70
49379;DHT22;35254;47.990;-1.608;2023-04-06T10:35:08;19.10;53.00
49379;DHT22;35254;47.990;-1.608;2023-04-06T10:37:53;19.10;52.90
49379;DHT22;35254;47.990;-1.608;2023-04-06T10:40:26;19.10;52.40
49379;DHT22;35254;47.990;-1.608;2023-04-06T10:42:54;19.10;52.70
49379;DHT22;35254;47.990;-1.608;2023-04-06T10:45:24;19.10;53.10
49379;DHT22;35254;47.990;-1.608;2023-04-06T10:47:54;19.10;53.10
49379;DHT22;35254;47.990;-1.608;2023-04-06T10:50:20;19.10;52.70
49379;DHT22;35254;47.990;-1.608;2023-04-06T10:52:47;19.10;52.90
49379;DHT22;35254;47.990;-1.608;2023-04-06T10:55:23;19.10;53.30
49379;DHT22;35254;47.990;-1.608;2023-04-06T10:57:50;19.10;53.30
49379;DHT22;35254;47.990;-1.608;2023-04-06T11:00:17;19.10;53.50
49379;DHT22;35254;47.990;-1.608;2023-04-06T11:02:44;19.10;53.90
49379;DHT22;35254;47.990;-1.608;2023-04-06T11:05:12;19.10;53.40
49379;DHT22;35254;47.990;-1.608;2023-04-06T11:07:39;19.10;54.00
49379;DHT22;35254;47.990;-1.608;2023-04-06T11:10:06;19.10;53.40
49379;DHT22;35254;47.990;-1.608;2023-04-06T11:12:32;19.10;53.60
49379;DHT22;35254;47.990;-1.608;2023-04-06T11:15:00;19.10;53.60
49379;DHT22;35254;47.990;-1.608;2023-04-06T11:17:30;19.10;53.80
49379;DHT22;35254;47.990;-1.608;2023-04-06T11:19:56;19.10;53.50
49379;DHT22;35254;47.990;-1.608;2023-04-06T11:22:23;19.10;53.70
49379;DHT22;35254;47.990;-1.608;2023-04-06T11:24:49;19.10;54.00
49379;DHT22;35254;47.990;-1.608;2023-04-06T11:27:15;19.10;53.60
49379;DHT22;35254;47.990;-1.608;2023-04-06T11:29:41;19.10;54.00
49379;DHT22;35254;47.990;-1.608;2023-04-06T11:32:07;19.20;53.90
49379;DHT22;35254;47.990;-1.608;2023-04-06T11:34:38;19.20;54.00
49379;DHT22;35254;47.990;-1.608;2023-04-06T11:37:10;19.20;54.00
49379;DHT22;35254;47.990;-1.608;2023-04-06T11:39:49;19.10;54.40
49379;DHT22;35254;47.990;-1.608;2023-04-06T11:42:27;19.20;54.00
49379;DHT22;35254;47.990;-1.608;2023-04-06T11:44:59;19.10;54.00
49379;DHT22;35254;47.990;-1.608;2023-04-06T11:47:29;19.20;54.30
49379;DHT22;35254;47.990;-1.608;2023-04-06T11:49:56;19.20;54.00
49379;DHT22;35254;47.990;-1.608;2023-04-06T11:52:30;19.20;54.20
49379;DHT22;35254;47.990;-1.608;2023-04-06T11:54:56;19.10;54.20
49379;DHT22;35254;47.990;-1.608;2023-04-06T11:57:23;19.20;54.60
49379;DHT22;35254;47.990;-1.608;2023-04-06T11:59:51;19.10;54.30
49379;DHT22;35254;47.990;-1.608;2023-04-06T12:02:16;19.20;54.20
49379;DHT22;35254;47.990;-1.608;2023-04-06T12:04:43;19.20;54.30
49379;DHT22;35254;47.990;-1.608;2023-04-06T12:07:09;19.20;54.50
49379;DHT22;35254;47.990;-1.608;2023-04-06T12:09:35;19.20;54.60
49379;DHT22;35254;47.990;-1.608;2023-04-06T12:12:02;19.20;54.30
49379;DHT22;35254;47.990;-1.608;2023-04-06T12:14:28;19.20;54.30
49379;DHT22;35254;47.990;-1.608;2023-04-06T12:16:56;19.20;54.40
49379;DHT22;35254;47.990;-1.608;2023-04-06T12:19:22;19.20;54.30
49379;DHT22;35254;47.990;-1.608;2023-04-06T12:21:51;19.20;54.50
49379;DHT22;35254;47.990;-1.608;2023-04-06T12:24:17;19.20;54.30
49379;DHT22;35254;47.990;-1.608;2023-04-06T12:26:43;19.20;54.30
49379;DHT22;35254;47.990;-1.608;2023-04-06T12:29:08;19.20;54.40
49379;DHT22;35254;47.990;-1.608;2023-04-06T12:31:35;19.20;54.40
49379;DHT22;35254;47.990;-1.608;2023-04-06T12:34:03;19.20;54.30
49379;DHT22;35254;47.990;-1.608;2023-04-06T12:36:28;19.20;54.30
49379;DHT22;35254;47.990;-1.608;2023-04-06T12:38:55;19.20;54.30
49379;DHT22;35254;47.990;-1.608;2023-04-06T12:41:20;19.20;54.30
49379;DHT22;35254;47.990;-1.608;2023-04-06T12:43:46;19.20;54.30
49379;DHT22;35254;47.990;-1.608;2023-04-06T12:46:12;19.20;54.30
49379;DHT22;35254;47.990;-1.608;2023-04-06T12:48:38;19.20;54.30
49379;DHT22;35254;47.990;-1.608;2023-04-06T12:51:05;19.20;54.40
49379;DHT22;35254;47.990;-1.608;2023-04-06T12:53:32;19.20;54.40
49379;DHT22;35254;47.990;-1.608;2023-04-06T12:55:58;19.20;54.40
49379;DHT22;35254;47.990;-1.608;2023-04-06T12:58:25;19.20;54.30
49379;DHT22;35254;47.990;-1.608;2023-04-06T13:01:06;19.20;54.40
49379;DHT22;35254;47.990;-1.608;2023-04-06T13:03:32;19.20;54.30
49379;DHT22;35254;47.990;-1.608;2023-04-06T13:05:59;19.20;54.30
49379;DHT22;35254;47.990;-1.608;2023-04-06T13:08:25;19.20;54.20
49379;DHT22;35254;47.990;-1.608;2023-04-06T13:10:51;19.20;54.20
49379;DHT22;35254;47.990;-1.608;2023-04-06T13:13:24;19.20;54.20
49379;DHT22;35254;47.990;-1.608;2023-04-06T13:15:51;19.20;54.40
49379;DHT22;35254;47.990;-1.608;2023-04-06T13:18:17;19.20;54.20
49379;DHT22;35254;47.990;-1.608;2023-04-06T13:20:43;19.20;54.20
49379;DHT22;35254;47.990;-1.608;2023-04-06T13:23:09;19.20;54.10
49379;DHT22;35254;47.990;-1.608;2023-04-06T13:25:35;19.20;54.10
49379;DHT22;35254;47.990;-1.608;2023-04-06T13:28:01;19.20;54.10
49379;DHT22;35254;47.990;-1.608;2023-04-06T13:30:27;19.20;54.10
49379;DHT22;35254;47.990;-1.608;2023-04-06T13:32:52;19.30;54.20
49379;DHT22;35254;47.990;-1.608;2023-04-06T13:35:18;19.20;54.10
49379;DHT22;35254;47.990;-1.608;2023-04-06T13:37:44;19.20;54.10
49379;DHT22;35254;47.990;-1.608;2023-04-06T13:40:10;19.20;54.20
49379;DHT22;35254;47.990;-1.608;2023-04-06T13:42:36;19.20;54.20
49379;DHT22;35254;47.990;-1.608;2023-04-06T13:45:03;19.20;54.30
49379;DHT22;35254;47.990;-1.608;2023-04-06T13:47:29;19.30;54.30
49379;DHT22;35254;47.990;-1.608;2023-04-06T13:49:55;19.20;54.30
49379;DHT22;35254;47.990;-1.608;2023-04-06T13:52:21;19.30;54.30
49379;DHT22;35254;47.990;-1.608;2023-04-06T13:54:48;19.20;54.40
49379;DHT22;35254;47.990;-1.608;2023-04-06T13:57:14;19.20;54.30
49379;DHT22;35254;47.990;-1.608;2023-04-06T13:59:39;19.30;54.40
49379;DHT22;35254;47.990;-1.608;2023-04-06T14:02:07;19.20;54.40
49379;DHT22;35254;47.990;-1.608;2023-04-06T14:04:33;19.30;54.40
49379;DHT22;35254;47.990;-1.608;2023-04-06T14:07:01;19.20;54.40
49379;DHT22;35254;47.990;-1.608;2023-04-06T14:09:28;19.20;54.50
49379;DHT22;35254;47.990;-1.608;2023-04-06T14:11:54;19.30;54.40
49379;DHT22;35254;47.990;-1.608;2023-04-06T14:14:20;19.30;54.40
49379;DHT22;35254;47.990;-1.608;2023-04-06T14:16:46;19.20;54.40
49379;DHT22;35254;47.990;-1.608;2023-04-06T14:19:14;19.30;54.30
49379;DHT22;35254;47.990;-1.608;2023-04-06T14:21:41;19.30;54.30
49379;DHT22;35254;47.990;-1.608;2023-04-06T14:24:07;19.30;54.30
49379;DHT22;35254;47.990;-1.608;2023-04-06T14:26:35;19.30;54.30
49379;DHT22;35254;47.990;-1.608;2023-04-06T14:29:01;19.30;54.30
49379;DHT22;35254;47.990;-1.608;2023-04-06T14:31:27;19.30;54.30
49379;DHT22;35254;47.990;-1.608;2023-04-06T14:33:53;19.30;54.30
49379;DHT22;35254;47.990;-1.608;2023-04-06T14:36:20;19.30;54.20
49379;DHT22;35254;47.990;-1.608;2023-04-06T14:38:45;19.30;54.40
49379;DHT22;35254;47.990;-1.608;2023-04-06T14:41:18;19.30;54.50
49379;DHT22;35254;47.990;-1.608;2023-04-06T14:43:46;19.30;54.50
49379;DHT22;35254;47.990;-1.608;2023-04-06T14:46:12;19.30;54.60
49379;DHT22;35254;47.990;-1.608;2023-04-06T14:48:37;19.30;54.50
49379;DHT22;35254;47.990;-1.608;2023-04-06T14:51:03;19.30;54.70
49379;DHT22;35254;47.990;-1.608;2023-04-06T14:53:29;19.30;54.70
49379;DHT22;35254;47.990;-1.608;2023-04-06T14:55:55;19.30;54.70
49379;DHT22;35254;47.990;-1.608;2023-04-06T14:58:22;19.30;54.70
49379;DHT22;35254;47.990;-1.608;2023-04-06T15:00:48;19.40;54.80
49379;DHT22;35254;47.990;-1.608;2023-04-06T15:03:14;19.30;55.00
49379;DHT22;35254;47.990;-1.608;2023-04-06T15:05:40;19.30;55.20
49379;DHT22;35254;47.990;-1.608;2023-04-06T15:08:06;19.30;55.10
49379;DHT22;35254;47.990;-1.608;2023-04-06T15:10:35;19.30;55.10
49379;DHT22;35254;47.990;-1.608;2023-04-06T15:13:02;19.40;55.10
49379;DHT22;35254;47.990;-1.608;2023-04-06T15:15:28;19.30;55.10
49379;DHT22;35254;47.990;-1.608;2023-04-06T15:17:54;19.40;55.20
49379;DHT22;35254;47.990;-1.608;2023-04-06T15:20:19;19.40;55.30